Flight Track Log - Related Links

Times and Time Zones

All times are in EDT time to prevent confusion due to time zone crossing. See the N421VA flight status page for this flight to view local times or setup timezone preferences in your user account.

Time Position Orientation Groundspeed Altitude Reporting Facility
EDT Latitude Longitude Course Direction KTS MPH feet Rate Location/Type
Sun 12:46:05 PM 38.7217 -82.8219 165° South 144 166 3,000  Level Indianapolis Center
Sun 12:47:06 PM 38.6839 -82.8136 170° South 138 159 3,600 585 Climbing Indianapolis Center
Sun 12:48:08 PM 38.6406 -82.8028 169° South 143 165 4,200 629 Climbing Indianapolis Center
Sun 12:49:10 PM 38.6022 -82.7892 164° South 143 165 4,900 581 Climbing Indianapolis Center
Sun 12:50:12 PM 38.5642 -82.7753 164° South 143 165 5,400 581 Climbing Indianapolis Center
Sun 12:51:00 PM 38.5962 -82.7610 165° South  Level Estimated
Sun 12:51:14 PM 38.5242 -82.7597 163° South 150 173 6,100  Level Indianapolis Center
Sun 12:52:16 PM 38.4856 -82.7414 160° South 147 169 6,800 871 Climbing Indianapolis Center
Sun 12:53:18 PM 38.4442 -82.7156 154° Southeast 138 159 7,900 823 Climbing Indianapolis Center
Sun 12:54:20 PM 38.4111 -82.6867 146° Southeast 142 163 8,500 581 Climbing Indianapolis Center
Sun 12:55:22 PM 38.3722 -82.6589 151° Southeast 155 178 9,100 581 Climbing Indianapolis Center
Sun 12:56:24 PM 38.3350 -82.6303 149° Southeast 157 181 9,700 581 Climbing Indianapolis Center
Sun 12:57:26 PM 38.2961 -82.6053 153° Southeast 156 180 10,300 581 Climbing Indianapolis Center
Sun 12:58:28 PM 38.2483 -82.5856 162° South 155 178 10,900 435 Climbing Indianapolis Center
Sun 12:59:30 PM 38.2072 -82.5686 162° South 156 180 11,200 439 Climbing Indianapolis Center
Sun 01:00:31 PM 38.1675 -82.5356 147° Southeast 166 191 11,800 634 Climbing Indianapolis Center
Sun 01:01:33 PM 38.1286 -82.5025 146° Southeast 168 193 12,500 677 Climbing Indianapolis Center
Sun 01:02:35 PM 38.0919 -82.4697 145° Southeast 163 188 13,200 677 Climbing Indianapolis Center
Sun 01:03:37 PM 38.0544 -82.4358 145° Southeast 163 188 13,900 677 Climbing Indianapolis Center
Sun 01:04:39 PM 38.0117 -82.3950 143° Southeast 165 190 14,600 677 Climbing Indianapolis Center
Sun 01:05:41 PM 37.9722 -82.3667 150° Southeast 164 189 15,300 677 Climbing Indianapolis Center
Sun 01:06:43 PM 37.9311 -82.3531 165° South 155 178 16,000 629 Climbing Indianapolis Center
Sun 01:07:45 PM 37.8914 -82.3383 164° South 149 171 16,600 532 Climbing Indianapolis Center
Sun 01:08:47 PM 37.8517 -82.3244 165° South 148 170 17,100 532 Climbing Indianapolis Center
Sun 01:09:49 PM 37.8108 -82.3122 167° South 150 173 17,700 435 Climbing Indianapolis Center
Sun 01:10:51 PM 37.7703 -82.3039 171° South 148 170 18,000 439 Climbing Indianapolis Center
Sun 01:11:52 PM 37.7233 -82.2906 167° South 150 173 18,600 537 Climbing Indianapolis Center
Sun 01:12:54 PM 37.6831 -82.2786 167° South 149 171 19,100 194 Climbing Indianapolis Center
Sun 01:13:56 PM 37.6353 -82.2692 171° South 170 196 19,000 -48 Descending Indianapolis Center
Sun 01:14:58 PM 37.5847 -82.2614 173° South 179 206 19,000  Level Indianapolis Center
Sun 01:16:00 PM 37.5331 -82.2514 171° South 184 212 19,000  Level Indianapolis Center
Sun 01:17:01 PM 37.4831 -82.2439 173° South 182 209 19,000  Level Indianapolis Center
Sun 01:18:03 PM 37.4289 -82.2325 171° South 170 196 19,000  Level Indianapolis Center
Sun 01:19:05 PM 37.3814 -82.2208 169° South 172 198 19,000  Level Indianapolis Center
Sun 01:20:07 PM 37.3333 -82.2036 164° South 177 204 19,000  Level Indianapolis Center
Sun 01:21:08 PM 37.2856 -82.1872 165° South 177 204 19,000  Level Indianapolis Center
Sun 01:22:10 PM 37.2367 -82.1725 167° South 180 207 19,000  Level Indianapolis Center
Sun 01:23:12 PM 37.1883 -82.1575 166° South 178 205 19,000  Level Indianapolis Center
Sun 01:24:14 PM 37.1406 -82.1403 164° South 177 204 19,000  Level Indianapolis Center
Sun 01:25:15 PM 37.0850 -82.1194 163° South 178 205 19,000  Level Indianapolis Center
Sun 01:26:17 PM 37.0372 -82.1014 163° South 179 206 19,000  Level Indianapolis Center
Sun 01:27:19 PM 36.9894 -82.0819 162° South 179 206 19,000  Level Indianapolis Center
Sun 01:28:21 PM 36.9408 -82.0628 163° South 181 208 19,000  Level Indianapolis Center
Sun 01:29:22 PM 36.8928 -82.0444 163° South 181 208 19,000  Level Indianapolis Center
Sun 01:30:24 PM 36.8447 -82.0250 162° South 181 208 19,000  Level Indianapolis Center
Sun 01:31:26 PM 36.7983 -82.0058 162° South 176 203 19,000  Level Indianapolis Center
Sun 01:32:27 PM 36.7456 -81.9842 162° South 172 198 19,000  Level Indianapolis Center
Sun 01:33:29 PM 36.6978 -81.9647 162° South 178 205 19,000  Level Indianapolis Center
Sun 01:34:31 PM 36.6514 -81.9458 162° South 176 203 19,000  Level Indianapolis Center
Sun 01:35:33 PM 36.6053 -81.9261 161° South 174 200 19,000  Level Indianapolis Center
Sun 01:35:56 PM 36.5864 -81.9214 169° South 180 207 19,000  Level Atlanta Center
Sun 01:36:56 PM 36.5403 -81.9044 164° South 180 207 19,000  Level Atlanta Center
Sun 01:37:56 PM 36.4961 -81.8850 161° South 175 201 19,000  Level Atlanta Center
Sun 01:38:56 PM 36.4478 -81.8681 164° South 175 201 19,000  Level Atlanta Center
Sun 01:39:56 PM 36.4039 -81.8514 163° South 175 201 19,000  Level Atlanta Center
Sun 01:40:56 PM 36.3578 -81.8397 168° South 175 201 19,000  Level Atlanta Center
Sun 01:41:56 PM 36.3094 -81.8231 164° South 175 201 19,000  Level Atlanta Center
Sun 01:42:56 PM 36.2633 -81.8089 166° South 175 201 19,000  Level Atlanta Center
Sun 01:43:56 PM 36.2150 -81.7947 167° South 180 207 19,000  Level Atlanta Center
Sun 01:44:56 PM 36.1628 -81.7808 168° South 180 207 19,000  Level Atlanta Center
Sun 01:45:56 PM 36.1186 -81.7717 170° South 180 207 19,000  Level Atlanta Center
Sun 01:46:56 PM 36.0725 -81.7600 168° South 180 207 19,000  Level Atlanta Center
Sun 01:47:56 PM 36.0264 -81.7486 169° South 180 207 19,000  Level Atlanta Center
Sun 01:48:56 PM 35.9783 -81.7397 171° South 180 207 19,000  Level Atlanta Center
Sun 01:49:56 PM 35.9322 -81.7308 171° South 180 207 19,000  Level Atlanta Center
Sun 01:50:56 PM 35.8819 -81.7192 169° South 180 207 19,000  Level Atlanta Center
Sun 01:51:56 PM 35.8339 -81.7106 172° South 180 207 19,000  Level Atlanta Center
Sun 01:52:56 PM 35.7856 -81.6939 164° South 180 207 19,000  Level Atlanta Center
Sun 01:53:56 PM 35.7372 -81.6825 169° South 180 207 19,000  Level Atlanta Center
Sun 01:54:56 PM 35.6911 -81.6633 161° South 180 207 19,000  Level Atlanta Center
Sun 01:55:56 PM 35.6469 -81.6467 163° South 180 207 19,000  Level Atlanta Center
Sun 01:56:56 PM 35.5986 -81.6278 162° South 180 207 19,000  Level Atlanta Center
Sun 01:57:56 PM 35.5522 -81.6061 159° South 185 213 19,000  Level Atlanta Center
Sun 01:58:56 PM 35.5039 -81.5872 162° South 185 213 19,000  Level Atlanta Center
Sun 01:59:56 PM 35.4533 -81.5683 163° South 185 213 19,000  Level Atlanta Center
Sun 02:00:56 PM 35.4072 -81.5467 159° South 185 213 19,000  Level Atlanta Center
Sun 02:01:56 PM 35.3586 -81.5253 160° South 190 219 19,000  Level Atlanta Center
Sun 02:02:56 PM 35.3125 -81.5089 164° South 190 219 19,000  Level Atlanta Center
Sun 02:03:56 PM 35.2642 -81.4875 160° South 185 213 19,000  Level Atlanta Center
Sun 02:04:56 PM 35.2092 -81.4636 160° South 185 213 19,000  Level Atlanta Center
Sun 02:05:56 PM 35.1631 -81.4447 161° South 185 213 19,000  Level Atlanta Center
Sun 02:06:56 PM 35.1167 -81.4258 162° South 185 213 19,000  Level Atlanta Center
Sun 02:07:56 PM 35.0661 -81.4022 159° South 190 219 19,000  Level Atlanta Center
Sun 02:08:56 PM 35.0197 -81.3808 159° South 185 213 19,000  Level Atlanta Center
Sun 02:09:56 PM 34.9733 -81.3619 162° South 185 213 19,000  Level Atlanta Center
Sun 02:10:56 PM 34.9250 -81.3408 160° South 185 213 19,000  Level Atlanta Center
Sun 02:11:56 PM 34.8786 -81.3219 162° South 185 213 19,000  Level Atlanta Center
Sun 02:12:56 PM 34.8303 -81.3008 160° South 185 213 19,000  Level Atlanta Center
Sun 02:13:56 PM 34.7819 -81.2947 174° South 183 211 19,000  Level Atlanta Center
Sun 02:15:46 PM 34.6961 -81.2817 173° South 184 212 19,000  Level Jacksonville Center
Sun 02:16:46 PM 34.6481 -81.2722 171° South 179 206 19,000  Level Jacksonville Center
Sun 02:17:46 PM 34.5978 -81.2606 169° South 179 206 19,000  Level Jacksonville Center
Sun 02:18:46 PM 34.5475 -81.2492 169° South 179 206 19,000  Level Jacksonville Center
Sun 02:19:46 PM 34.4975 -81.2400 171° South 179 206 19,000  Level Jacksonville Center
Sun 02:20:45 PM 34.4431 -81.2258 168° South 179 206 19,000  Level Jacksonville Center
Sun 02:21:46 PM 34.3950 -81.2192 173° South 179 206 19,000  Level Jacksonville Center
Sun 02:22:46 PM 34.3489 -81.2075 168° South 179 206 19,000  Level Jacksonville Center
Sun 02:23:46 PM 34.3008 -81.1983 171° South 179 206 19,000  Level Jacksonville Center
Sun 02:24:46 PM 34.2672 -81.1864 164° South 172 198 19,000  Level Jacksonville Center
Sun 02:25:46 PM 34.2064 -81.1725 169° South 177 204 19,000  Level Jacksonville Center
Sun 02:26:46 PM 34.1711 -81.1683 174° South 177 204 19,000  Level Jacksonville Center
Sun 02:27:46 PM 34.1125 -81.1619 175° South 177 204 19,000  Level Jacksonville Center
Sun 02:28:46 PM 34.0644 -81.1528 171° South 177 204 19,000  Level Jacksonville Center
Sun 02:29:46 PM 34.0142 -81.1539 181° South 177 204 19,000  Level Jacksonville Center
Sun 02:30:46 PM 33.9642 -81.1547 181° South 183 211 19,000  Level Jacksonville Center
Sun 02:31:46 PM 33.9142 -81.1583 183° South 183 211 19,000  Level Jacksonville Center
Sun 02:32:46 PM 33.8642 -81.1594 181° South 178 205 19,000  Level Jacksonville Center
Sun 02:33:46 PM 33.8142 -81.1603 181° South 178 205 19,000 -50 Level Jacksonville Center
Sun 02:34:46 PM 33.7681 -81.1611 181° South 178 205 18,900 -200 Descending Jacksonville Center
Sun 02:35:46 PM 33.7161 -81.1622 181° South 186 214 18,600 -450 Descending Jacksonville Center
Sun 02:36:46 PM 33.6597 -81.1658 183° South 197 227 18,000 -550 Descending Jacksonville Center
Sun 02:37:46 PM 33.6033 -81.1669 181° South 204 235 17,500 -550 Descending Jacksonville Center
Sun 02:38:46 PM 33.5450 -81.1681 181° South 204 235 16,900 -800 Descending Jacksonville Center
Sun 02:40:00 PM 33.4902 -81.1377 155° Southeast  Level FlightAware Approximate
Sun 02:40:46 PM 33.4303 -81.1778 155° Southeast 215 247 15,100  Level Jacksonville Center
Sun 02:41:45 PM 33.3742 -81.1814 183° South 215 247 14,300 -850 Descending Jacksonville Center
Sun 02:42:46 PM 33.3156 -81.1850 183° South 215 247 13,400 -893 Descending Jacksonville Center
Sun 02:43:46 PM 33.2594 -81.1911 185° South 215 247 12,500 -850 Descending Jacksonville Center
Sun 02:44:46 PM 33.2031 -81.1969 185° South 215 247 11,700 -900 Descending Jacksonville Center
Sun 02:45:46 PM 33.1469 -81.2106 191° South 215 247 10,700 -700 Descending Jacksonville Center
Sun 02:46:46 PM 33.0975 -81.2511 214° Southwest 210 242 10,300 -700 Descending Jacksonville Center
Sun 02:47:46 PM 33.0647 -81.3136 238° Southwest 210 242 9,300 -950 Descending Jacksonville Center
Sun 02:48:46 PM 33.0342 -81.3711 238° Southwest 216 249 8,400 -750 Descending Jacksonville Center
Sun 02:49:46 PM 32.9972 -81.4289 233° Southwest 222 255 7,800 -550 Descending Jacksonville Center
Sun 02:50:46 PM 32.9494 -81.4567 206° Southwest 217 250 7,300 -450 Descending Jacksonville Center
Sun 02:51:46 PM 32.8975 -81.4600 183° South 188 216 6,900 -550 Descending Jacksonville Center
Sun 02:52:46 PM 32.8431 -81.4608 181° South 188 216 6,200 -600 Descending Jacksonville Center
Sun 02:53:46 PM 32.8011 -81.4244 144° Southeast 175 201 5,700 -550 Descending Jacksonville Center
Sun 02:54:46 PM 32.7714 -81.3831 130° Southeast 175 201 5,100 -350 Descending Jacksonville Center
Sun 02:55:46 PM 32.7394 -81.3417 133° Southeast 169 194 5,000 -50 Descending Jacksonville Center
Sun 02:56:46 PM 32.7097 -81.3000 130° Southeast 169 194 5,000  Level Jacksonville Center
Sun 02:57:46 PM 32.6778 -81.2586 133° Southeast 155 178 5,000  Level Jacksonville Center
Sun 02:58:46 PM 32.6503 -81.2197 130° Southeast 155 178 5,000  Level Jacksonville Center
Sun 02:59:46 PM 32.6247 -81.1833 130° Southeast 160 184 5,000 -50 Level Jacksonville Center
Sun 03:00:46 PM 32.5969 -81.1442 130° Southeast 160 184 4,900 -450 Descending Jacksonville Center
Sun 03:01:46 PM 32.5589 -81.0958 133° Southeast 169 194 4,100 -950 Descending Jacksonville Center
Sun 03:02:46 PM 32.5206 -81.0522 136° Southeast 180 207 3,000 -550 Descending Jacksonville Center
Sun 03:03:46 PM 32.4886 -81.0108 132° Southeast 174 200 3,000 -250 Level Jacksonville Center
Sun 03:04:46 PM 32.4794 -80.9594 102° East 162 186 2,500 -600 Descending Jacksonville Center
Sun 03:05:46 PM 32.4597 -80.9008 112° Southeast 175 201 1,800 -350 Descending Jacksonville Center
Sun 03:06:46 PM 32.4422 -80.8494 112° Southeast 175 201 1,800  Level Jacksonville Center
Sun 03:07:46 PM 32.4311 -80.8028 106° East 170 196 1,800  Level Jacksonville Center
Sun 03:08:46 PM 32.4197 -80.7467 104° East 158 182 1,800 -50 Level Jacksonville Center
Sun 03:09:46 PM 32.4044 -80.7050 113° Southeast 158 182 1,700 -200 Descending Jacksonville Center
Sun 03:10:46 PM 32.3706 -80.6764 145° Southeast 149 171 1,400 -200 Descending Jacksonville Center
Sun 03:11:46 PM 32.3286 -80.6700 173° South 142 163 1,300 -50 Descending Jacksonville Center
Sun 03:12:45 PM 32.2972 -80.6561 159° South 136 157 1,300 1,866 Level Jacksonville Center
Sun 03:13:45 PM 32.2614 -80.6397 159° South 136 157 5,000 3,700 Climbing Jacksonville Center
Sun 03:15:00 PM 32.2167 -80.6833 North  Level FlightAware Approximate
Sun 03:22:00 PM 32.2244 -80.6975 North  Level Estimated
Sun 03:23:00 PM 32.2244 -80.6975 North  Level Estimated
Sun 03:24:00 PM 32.2244 -80.6975 North  Level Estimated
Sun 03:25:00 PM 32.2244 -80.6975 North  Level Estimated
Sun 03:26:00 PM 32.2244 -80.6975 North  Level Estimated
Sun 03:27:00 PM 32.2244 -80.6975 North  Level Estimated
Sun 03:28:00 PM 32.2244 -80.6975 North  Level Estimated
Sun 03:29:00 PM 32.2244 -80.6975 North  Level Estimated

Login

Don't have an account? Register now (free) for customized features, flight alerts, and more!